Time;durP1;ratioP1;P1;durP2;ratioP2;P2;SDS_P1;SDS_P2;PMS_P1;PMS_P2;Temp;Humidity;BMP_temperature;BMP_pressure;BME280_temperature;BME280_humidity;BME280_pressure;Samples;Min_cycle;Max_cycle;Signal;HPM_P1;HPM_P2
2023/04/15 00:03:33;;;;;;;1.60;1.50;;;;;;;4.32;100.00;95432.47;10450252;28;20656;-75
2023/04/15 00:08:33;;;;;;;1.53;1.23;;;;;;;4.44;100.00;95426.09;10450472;28;20216;-75
2023/04/15 00:13:33;;;;;;;1.80;1.70;;;;;;;4.41;100.00;95423.78;10431867;28;20506;-76
2023/04/15 00:18:34;;;;;;;1.57;1.47;;;;;;;4.38;100.00;95414.56;10457556;28;20585;-75
2023/04/15 00:23:35;;;;;;;3.80;1.77;;;;;;;4.28;100.00;95408.63;10439089;28;20229;-76
2023/04/15 00:28:36;;;;;;;1.80;1.70;;;;;;;4.38;100.00;95403.34;10457628;28;20227;-76
2023/04/15 00:33:36;;;;;;;1.80;1.70;;;;;;;4.42;100.00;95399.50;10457040;28;20619;-75
2023/04/15 00:38:38;;;;;;;1.67;1.57;;;;;;;4.39;100.00;95392.81;10456807;28;20294;-75
2023/04/15 00:43:38;;;;;;;1.50;1.40;;;;;;;4.39;100.00;95386.84;10421935;28;20326;-75
2023/04/15 00:48:39;;;;;;;1.73;1.63;;;;;;;4.43;100.00;95391.56;10456410;28;20207;-76
2023/04/15 00:53:40;;;;;;;1.60;1.50;;;;;;;4.39;100.00;95381.66;10422180;28;20241;-75
2023/04/15 00:58:40;;;;;;;1.60;1.50;;;;;;;4.34;100.00;95374.34;10437488;28;20231;-76
2023/04/15 01:03:41;;;;;;;1.53;1.40;;;;;;;4.29;100.00;95373.97;10437623;28;20195;-76
2023/04/15 01:08:42;;;;;;;1.60;1.50;;;;;;;4.24;100.00;95376.19;10420952;28;20192;-76
2023/04/15 01:13:42;;;;;;;1.50;1.40;;;;;;;4.35;100.00;95375.97;10437875;28;20214;-75
2023/04/15 01:18:42;;;;;;;1.47;1.37;;;;;;;4.28;100.00;95380.13;10455544;28;20219;-76
2023/04/15 01:23:43;;;;;;;1.43;1.33;;;;;;;4.26;100.00;95371.69;10437141;28;20192;-76
2023/04/15 01:28:44;;;;;;;1.40;1.30;;;;;;;4.25;100.00;95373.44;10420430;28;20267;-76
2023/04/15 01:33:44;;;;;;;1.57;1.40;;;;;;;4.25;100.00;95372.66;10454713;28;20176;-76
2023/04/15 01:38:48;;;;;;;1.67;1.57;;;;;;;4.15;100.00;95361.53;10436767;28;20303;-76
2023/04/15 01:43:48;;;;;;;1.83;1.73;;;;;;;4.24;100.00;95365.81;10436211;28;20322;-76
2023/04/15 01:48:49;;;;;;;1.93;1.73;;;;;;;4.23;100.00;95365.03;10454476;28;20196;-76
2023/04/15 01:53:49;;;;;;;1.80;1.70;;;;;;;4.31;100.00;95364.25;10453948;28;20196;-76
2023/04/15 01:58:50;;;;;;;2.10;1.97;;;;;;;4.31;100.00;95359.09;10453778;28;20216;-76
2023/04/15 02:03:51;;;;;;;1.80;1.70;;;;;;;4.26;100.00;95359.53;10435857;28;20226;-76
2023/04/15 02:08:51;;;;;;;1.60;1.50;;;;;;;4.20;100.00;95362.72;10453150;28;20230;-75
2023/04/15 02:13:51;;;;;;;1.57;1.40;;;;;;;4.29;100.00;95364.41;10453155;28;20287;-76
2023/04/15 02:18:52;;;;;;;1.90;1.70;;;;;;;4.28;100.00;95359.38;10435251;28;20697;-76
2023/04/15 02:23:55;;;;;;;1.60;1.50;;;;;;;4.26;100.00;95366.50;10452733;28;20220;-74
2023/04/15 02:28:55;;;;;;;1.80;1.70;;;;;;;4.19;100.00;95371.47;10452616;28;20660;-75
2023/04/15 02:33:56;;;;;;;2.67;1.93;;;;;;;4.10;100.00;95364.59;10452196;28;20249;-77
2023/04/15 02:38:56;;;;;;;2.13;1.93;;;;;;;4.06;100.00;95365.88;10451204;28;20220;-77
2023/04/15 02:43:57;;;;;;;1.60;1.50;;;;;;;4.25;100.00;95365.66;10434367;28;20644;-77
2023/04/15 02:48:58;;;;;;;1.73;1.60;;;;;;;4.26;100.00;95354.34;10430610;28;20203;-77
2023/04/15 02:53:59;;;;;;;1.40;1.30;;;;;;;4.32;100.00;95349.50;10409527;28;20185;-77
2023/04/15 02:58:59;;;;;;;1.93;1.70;;;;;;;4.24;100.00;95330.38;10391091;28;20689;-76
2023/04/15 03:03:59;;;;;;;1.60;1.50;;;;;;;4.30;100.00;95323.75;10408383;28;20207;-76
2023/04/15 03:09:01;;;;;;;1.63;1.53;;;;;;;4.24;100.00;95332.13;10447123;28;20191;-76
2023/04/15 03:14:03;;;;;;;1.70;1.60;;;;;;;4.31;100.00;95338.34;10429291;28;20202;-76
2023/04/15 03:19:08;;;;;;;1.60;1.50;;;;;;;4.19;100.00;95335.16;10429755;28;20224;-76
2023/04/15 03:24:08;;;;;;;1.57;1.30;;;;;;;4.16;100.00;95339.84;10429384;28;20755;-76
2023/04/15 03:29:09;;;;;;;1.80;1.70;;;;;;;4.28;100.00;95339.44;10429488;28;20184;-76
2023/04/15 03:34:10;;;;;;;1.50;1.40;;;;;;;4.22;100.00;95339.25;10428929;28;20187;-76
2023/04/15 03:39:11;;;;;;;1.80;1.60;;;;;;;4.16;100.00;95332.88;10447101;28;20873;-76
2023/04/15 03:44:11;;;;;;;2.07;1.77;;;;;;;4.15;100.00;95328.69;10446576;28;20768;-77
2023/04/15 03:49:12;;;;;;;2.17;2.00;;;;;;;4.37;100.00;95331.75;10447420;28;20286;-75
2023/04/15 03:54:14;;;;;;;2.17;1.97;;;;;;;4.23;100.00;95325.34;10455251;28;20188;-76
2023/04/15 03:59:14;;;;;;;2.30;2.10;;;;;;;4.18;100.00;95310.25;10454930;28;20212;-76
2023/04/15 04:04:15;;;;;;;2.20;2.00;;;;;;;4.32;100.00;95314.06;10457447;28;20200;-76
2023/04/15 04:09:15;;;;;;;1.60;1.50;;;;;;;4.22;100.00;95308.16;10458384;28;20299;-77
2023/04/15 04:14:16;;;;;;;1.70;1.60;;;;;;;4.24;100.00;95325.19;10458263;28;20188;-77
2023/04/15 04:19:18;;;;;;;1.57;1.47;;;;;;;4.24;100.00;95327.78;10457999;28;20254;-77
2023/04/15 04:24:19;;;;;;;1.67;1.57;;;;;;;4.07;100.00;95313.88;10440489;28;20192;-79
2023/04/15 04:29:19;;;;;;;1.40;1.30;;;;;;;4.21;100.00;95320.31;10439787;28;20188;-80
2023/04/15 04:34:20;;;;;;;1.27;0.90;;;;;;;4.25;100.00;95324.19;10456903;28;20195;-79
2023/04/15 04:39:20;;;;;;;0.80;0.80;;;;;;;4.22;100.00;95329.69;10422631;28;20302;-78
2023/04/15 04:44:21;;;;;;;0.90;0.90;;;;;;;4.33;100.00;95339.00;10456411;28;20297;-78
2023/04/15 04:49:21;;;;;;;0.70;0.70;;;;;;;4.27;100.00;95348.22;10456569;28;20185;-79
2023/04/15 04:54:22;;;;;;;0.80;0.80;;;;;;;4.21;100.00;95348.81;10456379;28;20199;-79
2023/04/15 04:59:23;;;;;;;0.70;0.70;;;;;;;4.37;100.00;95355.06;10455860;28;20219;-77
2023/04/15 05:04:23;;;;;;;0.90;0.90;;;;;;;4.14;100.00;95345.19;10454289;28;20735;-79
2023/04/15 05:09:23;;;;;;;0.73;0.73;;;;;;;4.25;100.00;95352.72;10455449;28;20238;-78
2023/04/15 05:14:24;;;;;;;0.60;0.60;;;;;;;4.36;100.00;95361.22;10455578;28;20194;-76
2023/04/15 05:19:24;;;;;;;1.67;0.80;;;;;;;4.27;100.00;95357.75;10455015;28;20211;-76
2023/04/15 05:24:24;;;;;;;0.63;0.63;;;;;;;4.32;100.00;95359.88;10454348;28;20214;-76
2023/04/15 05:29:25;;;;;;;1.63;1.53;;;;;;;4.30;100.00;95357.44;10453429;28;20215;-76
2023/04/15 05:34:25;;;;;;;0.90;0.90;;;;;;;4.36;100.00;95359.44;10454248;28;20199;-76
2023/04/15 05:39:26;;;;;;;1.97;0.87;;;;;;;4.40;100.00;95373.72;10454581;28;20239;-76
2023/04/15 05:44:26;;;;;;;4.40;3.50;;;;;;;4.37;100.00;95368.03;10453831;28;20263;-80
2023/04/15 05:49:26;;;;;;;49.83;30.17;;;;;;;4.51;100.00;95374.44;10454230;28;20548;-80
2023/04/15 05:54:27;;;;;;;1.67;1.57;;;;;;;4.47;100.00;95382.53;10453708;28;20891;-79
2023/04/15 05:59:27;;;;;;;1.60;1.50;;;;;;;4.53;100.00;95386.28;10451490;28;20653;-79
2023/04/15 06:04:28;;;;;;;1.53;1.43;;;;;;;4.57;100.00;95385.03;10451541;28;20561;-76
2023/04/15 06:09:28;;;;;;;1.90;1.53;;;;;;;4.73;100.00;95393.88;10453310;28;20223;-76
2023/04/15 06:14:28;;;;;;;1.30;1.20;;;;;;;4.73;100.00;95399.06;10452280;28;20199;-76
2023/04/15 06:19:29;;;;;;;3.13;2.83;;;;;;;4.73;100.00;95396.47;10451190;28;20217;-75
2023/04/15 06:24:30;;;;;;;1.27;1.00;;;;;;;4.91;100.00;95399.81;10449650;28;20278;-75
2023/04/15 06:29:30;;;;;;;1.83;1.47;;;;;;;4.75;100.00;95394.56;10452026;28;20176;-76
2023/04/15 06:34:31;;;;;;;1.00;1.00;;;;;;;4.95;100.00;95390.75;10450517;28;20196;-76
2023/04/15 06:39:31;;;;;;;1.00;0.97;;;;;;;4.84;100.00;95391.03;10446315;28;20224;-76
2023/04/15 06:44:31;;;;;;;2.00;1.47;;;;;;;4.94;100.00;95390.91;10451079;28;20322;-75
2023/04/15 06:49:32;;;;;;;2.00;1.57;;;;;;;5.04;100.00;95402.00;10450782;28;20957;-76
2023/04/15 06:54:33;;;;;;;1.33;1.23;;;;;;;4.92;100.00;95391.06;10450143;28;20202;-75
2023/04/15 06:59:33;;;;;;;1.27;1.17;;;;;;;4.83;100.00;95394.59;10448136;28;20962;-76
2023/04/15 07:04:33;;;;;;;1.10;1.00;;;;;;;4.80;100.00;95393.09;10439936;28;20202;-76
2023/04/15 07:09:34;;;;;;;1.60;0.97;;;;;;;5.01;100.00;95397.13;10450196;28;20207;-76
2023/04/15 07:14:35;;;;;;;1.00;1.00;;;;;;;5.05;100.00;95387.25;10449658;28;20192;-76
2023/04/15 07:19:35;;;;;;;21.30;12.57;;;;;;;5.01;100.00;95389.34;10450209;28;20227;-75
2023/04/15 07:24:36;;;;;;;64.37;29.20;;;;;;;5.17;100.00;95392.00;10469382;28;20196;-75
2023/04/15 07:29:36;;;;;;;0.63;0.63;;;;;;;5.63;100.00;95394.25;10480860;28;20947;-76
2023/04/15 07:34:36;;;;;;;0.77;0.77;;;;;;;5.52;100.00;95384.19;10445508;28;20655;-75
2023/04/15 07:39:37;;;;;;;1.50;1.40;;;;;;;5.52;100.00;95379.78;10463078;28;20314;-75
2023/04/15 07:44:37;;;;;;;1.33;0.90;;;;;;;5.75;100.00;95383.59;10462880;28;20240;-75
2023/04/15 07:49:38;;;;;;;3.50;0.93;;;;;;;5.62;100.00;95379.66;10463025;28;20233;-76
2023/04/15 07:54:38;;;;;;;1.20;1.10;;;;;;;5.78;100.00;95381.47;10462344;28;20192;-75
2023/04/15 07:59:39;;;;;;;0.77;0.77;;;;;;;5.89;100.00;95381.16;10462183;28;20235;-76
2023/04/15 08:04:39;;;;;;;1.27;1.17;;;;;;;5.88;100.00;95387.34;10462741;28;20612;-76
2023/04/15 08:09:40;;;;;;;1.63;1.07;;;;;;;5.97;100.00;95401.22;10462611;28;20233;-76
2023/04/15 08:14:40;;;;;;;2.60;1.70;;;;;;;5.84;100.00;95400.81;10462404;28;20220;-76
2023/04/15 08:19:41;;;;;;;2.90;2.60;;;;;;;6.06;100.00;95394.22;10445002;28;20578;-76
2023/04/15 08:24:41;;;;;;;4.37;1.47;;;;;;;6.20;100.00;95395.38;10461699;28;20261;-80
2023/04/15 08:29:42;;;;;;;1.87;1.77;;;;;;;5.75;100.00;95386.19;10462466;28;20198;-80
2023/04/15 08:34:42;;;;;;;1.17;1.07;;;;;;;6.67;100.00;95397.31;10441085;28;20284;-80
2023/04/15 08:39:44;;;;;;;1.30;1.03;;;;;;;6.11;100.00;95391.13;10452171;28;20220;-82
2023/04/15 08:44:45;;;;;;;1.40;1.30;;;;;;;6.24;100.00;95409.69;10452223;28;20704;-82
2023/04/15 08:49:47;;;;;;;0.90;0.90;;;;;;;6.46;100.00;95407.41;10452389;28;20223;-83
2023/04/15 08:54:47;;;;;;;2.00;1.90;;;;;;;6.71;100.00;95409.00;10440064;28;20204;-81
2023/04/15 08:59:48;;;;;;;2.77;1.30;;;;;;;6.59;100.00;95407.72;10443028;28;20588;-81
2023/04/15 09:04:48;;;;;;;3.47;2.30;;;;;;;6.51;100.00;95407.72;10435570;28;20609;-80
2023/04/15 09:09:49;;;;;;;3.90;3.07;;;;;;;6.52;100.00;95409.34;10436842;28;20194;-80
2023/04/15 09:14:51;;;;;;;1.40;1.30;;;;;;;6.43;100.00;95414.56;10436507;28;20203;-80
2023/04/15 09:20:07;;;;;;;1.70;1.60;;;;;;;6.37;100.00;95430.81;10410971;28;20217;-76
2023/04/15 09:25:13;;;;;;;1.83;1.73;;;;;;;6.53;100.00;95424.00;10412622;28;20270;-76
2023/04/15 09:30:14;;;;;;;2.87;1.97;;;;;;;6.95;100.00;95420.34;10412911;28;20216;-76
2023/04/15 09:35:15;;;;;;;4.67;3.50;;;;;;;7.08;100.00;95418.06;10404284;28;20288;-78
2023/04/15 09:40:31;;;;;;;1.90;1.80;;;;;;;7.19;100.00;95426.50;10452914;28;20924;-76
2023/04/15 09:45:33;;;;;;;1.93;1.60;;;;;;;7.63;100.00;95434.63;10453049;28;20291;-76
2023/04/15 09:50:40;;;;;;;3.30;1.63;;;;;;;7.65;100.00;95429.25;10451609;28;20656;-75
2023/04/15 09:55:44;;;;;;;2.30;1.80;;;;;;;7.70;100.00;95437.38;10453076;28;20242;-76
2023/04/15 10:00:46;;;;;;;2.10;2.00;;;;;;;7.84;100.00;95441.88;10434111;28;20220;-76
2023/04/15 10:05:51;;;;;;;1.97;1.87;;;;;;;7.23;100.00;95446.00;10452020;28;20188;-76
2023/04/15 10:10:52;;;;;;;2.67;2.47;;;;;;;7.09;100.00;95455.31;10451077;28;20194;-77
2023/04/15 10:15:58;;;;;;;2.20;2.00;;;;;;;7.28;100.00;95448.94;10451717;28;20198;-77
2023/04/15 10:21:00;;;;;;;3.60;3.10;;;;;;;7.35;100.00;95465.53;10451356;28;20223;-77
2023/04/15 10:26:02;;;;;;;2.10;1.90;;;;;;;7.09;100.00;95461.34;10450170;28;20275;-77
2023/04/15 10:31:03;;;;;;;3.93;3.37;;;;;;;6.87;100.00;95473.25;10416813;28;20188;-76
2023/04/15 10:36:05;;;;;;;3.00;2.40;;;;;;;6.98;100.00;95474.69;10449550;28;20194;-76
2023/04/15 10:41:22;;;;;;;5.30;3.83;;;;;;;7.32;100.00;95466.66;10438086;28;20239;-76
2023/04/15 10:46:36;;;;;;;2.63;2.43;;;;;;;7.24;100.00;95473.69;10452502;28;20234;-76
2023/04/15 10:51:41;;;;;;;2.73;2.43;;;;;;;7.47;100.00;95479.00;10434262;28;20188;-76
2023/04/15 10:56:43;;;;;;;2.73;2.30;;;;;;;7.38;100.00;95486.03;10451657;28;20196;-76
2023/04/15 11:02:11;;;;;;;2.97;2.27;;;;;;;7.33;100.00;95490.91;10451257;28;20191;-76
2023/04/15 11:07:11;;;;;;;2.30;2.07;;;;;;;7.25;100.00;95496.16;10429971;28;20192;-76
2023/04/15 11:12:12;;;;;;;3.00;2.70;;;;;;;7.09;100.00;95503.03;10451776;28;20286;-76
2023/04/15 11:17:12;;;;;;;3.40;2.10;;;;;;;7.03;100.00;95498.47;10451311;28;20227;-76
2023/04/15 11:22:12;;;;;;;2.50;2.30;;;;;;;7.25;100.00;95515.19;10450839;28;20191;-74
2023/04/15 11:27:21;;;;;;;2.43;2.23;;;;;;;7.38;100.00;95517.31;10447001;28;20181;-74
2023/04/15 11:32:21;;;;;;;2.43;2.20;;;;;;;7.26;100.00;95519.44;10444929;28;20232;-74
2023/04/15 11:37:28;;;;;;;2.83;2.40;;;;;;;7.31;100.00;95506.72;10451306;28;20302;-74
2023/04/15 11:42:28;;;;;;;2.70;2.33;;;;;;;7.47;100.00;95525.91;10430830;28;20311;-74
2023/04/15 11:47:28;;;;;;;3.27;2.97;;;;;;;7.55;100.00;95527.66;10430553;28;20190;-74
2023/04/15 11:52:29;;;;;;;2.90;2.53;;;;;;;7.29;100.00;95536.53;10448720;28;20191;-73
2023/04/15 11:57:34;;;;;;;3.20;2.90;;;;;;;7.40;100.00;95532.78;10449559;28;20219;-73
2023/04/15 12:02:36;;;;;;;3.60;3.30;;;;;;;7.16;100.00;95538.81;10450020;28;20429;-74
2023/04/15 12:07:58;;;;;;;3.43;3.00;;;;;;;7.17;100.00;95549.06;10450873;28;20275;-73
2023/04/15 12:12:59;;;;;;;3.20;2.53;;;;;;;7.71;100.00;95545.06;10453936;28;20764;-74
2023/04/15 12:17:59;;;;;;;4.27;3.20;;;;;;;7.81;100.00;95549.09;10451724;28;20284;-74
2023/04/15 12:23:06;;;;;;;3.50;2.47;;;;;;;7.91;100.00;95535.06;10451977;28;20191;-74
2023/04/15 12:28:10;;;;;;;2.30;2.10;;;;;;;7.63;100.00;95554.53;10451849;28;20184;-74
2023/04/15 12:33:10;;;;;;;3.57;2.80;;;;;;;7.95;100.00;95563.25;10452016;28;20190;-73
2023/04/15 12:38:11;;;;;;;2.50;2.30;;;;;;;8.03;100.00;95551.97;10450911;28;20219;-74
2023/04/15 12:43:11;;;;;;;3.30;2.57;;;;;;;7.96;100.00;95567.50;10411782;28;20452;-74
2023/04/15 12:48:11;;;;;;;2.67;2.40;;;;;;;7.99;100.00;95567.16;10410445;28;20193;-74
2023/04/15 12:59:17;;;;;;;2.53;2.30;;;;;;;8.07;100.00;95586.34;10420301;28;20216;-74
2023/04/15 13:04:20;;;;;;;2.20;2.00;;;;;;;8.07;100.00;95600.22;10412994;28;20658;-74
2023/04/15 13:09:21;;;;;;;4.63;2.83;;;;;;;8.06;100.00;95602.97;10391237;28;20205;-74
2023/04/15 13:14:22;;;;;;;3.27;2.60;;;;;;;7.98;100.00;95603.81;10408400;28;20668;-73
2023/04/15 13:19:25;;;;;;;2.93;2.47;;;;;;;8.01;100.00;95608.72;10417510;28;20832;-75
2023/04/15 13:24:25;;;;;;;4.03;2.70;;;;;;;8.39;100.00;95604.47;10445832;28;20184;-75
2023/04/15 13:29:29;;;;;;;2.37;2.17;;;;;;;8.42;100.00;95598.09;10447641;28;20667;-74
2023/04/15 13:34:29;;;;;;;3.30;2.90;;;;;;;7.88;100.00;95616.22;10448979;28;20260;-74
2023/04/15 13:39:33;;;;;;;3.20;2.83;;;;;;;7.89;100.00;95612.63;10449728;28;20284;-74
2023/04/15 13:44:33;;;;;;;2.80;2.60;;;;;;;8.29;100.00;95627.34;10444285;28;20354;-74
2023/04/15 13:49:34;;;;;;;2.47;2.23;;;;;;;7.74;100.00;95621.13;10449360;28;20192;-75
2023/04/15 13:54:34;;;;;;;3.30;2.43;;;;;;;7.76;100.00;95628.78;10449369;28;20576;-75
2023/04/15 13:59:36;;;;;;;2.73;2.47;;;;;;;7.55;100.00;95648.38;10447896;28;20239;-75
2023/04/15 14:04:36;;;;;;;2.87;2.40;;;;;;;7.77;100.00;95652.09;10448516;28;20704;-75
2023/04/15 14:09:36;;;;;;;2.97;2.40;;;;;;;7.77;100.00;95649.50;10448084;28;20217;-74
2023/04/15 14:14:37;;;;;;;16.23;10.40;;;;;;;7.86;100.00;95663.34;10447584;28;20199;-75
2023/04/15 14:19:37;;;;;;;3.07;2.60;;;;;;;7.54;100.00;95658.97;10447382;28;20220;-75
2023/04/15 14:24:37;;;;;;;2.77;2.47;;;;;;;7.78;100.00;95669.38;10447394;28;20180;-75
2023/04/15 14:29:38;;;;;;;3.90;3.50;;;;;;;7.82;100.00;95688.09;10446687;28;20203;-75
2023/04/15 14:34:39;;;;;;;5.03;4.10;;;;;;;7.78;100.00;95695.44;10446542;28;20270;-73
2023/04/15 14:39:39;;;;;;;4.20;3.60;;;;;;;7.69;100.00;95701.63;10446423;28;20220;-74
2023/04/15 14:44:40;;;;;;;4.53;3.70;;;;;;;7.98;100.00;95698.50;10406010;28;20232;-75
2023/04/15 14:49:40;;;;;;;4.73;3.83;;;;;;;8.45;100.00;95688.31;10405342;28;20196;-74
2023/04/15 14:54:40;;;;;;;4.30;3.03;;;;;;;9.04;99.78;95672.22;10404514;28;20196;-74
2023/04/15 14:59:41;;;;;;;3.60;3.10;;;;;;;8.85;98.22;95671.69;10404866;28;20220;-74
2023/04/15 15:04:41;;;;;;;2.60;2.40;;;;;;;9.19;90.90;95635.69;10382269;28;20197;-74
2023/04/15 15:09:41;;;;;;;3.55;2.95;;;;;;;9.44;90.90;95647.59;10362769;28;20193;-75
2023/04/15 15:14:42;;;;;;;3.63;2.83;;;;;;;9.54;89.86;95647.38;10364076;28;20185;-75
2023/04/15 15:19:50;;;;;;;2.60;2.40;;;;;;;10.68;84.46;95620.97;10464444;22;20269;-65
2023/04/15 15:24:53;;;;;;;2.50;2.30;;;;;;;12.53;76.80;95581.66;10482482;28;20230;-65
2023/04/15 15:29:55;;;;;;;2.78;2.15;;;;;;;13.03;71.50;95557.69;10472453;28;20202;-66
2023/04/15 15:34:55;;;;;;;2.60;2.40;;;;;;;12.81;76.08;95626.19;10441568;28;20228;-65
2023/04/15 15:39:56;;;;;;;3.08;2.78;;;;;;;13.00;74.01;95626.44;10443559;28;20212;-65
2023/04/15 15:44:56;;;;;;;4.32;2.60;;;;;;;12.77;73.14;95618.91;10443062;28;20219;-65
2023/04/15 15:49:56;;;;;;;3.28;2.97;;;;;;;11.74;74.89;95641.34;10452011;28;20188;-62
2023/04/15 15:54:57;;;;;;;3.10;2.80;;;;;;;10.91;80.80;95709.09;10458101;28;20689;-64
2023/04/15 15:59:57;;;;;;;2.67;2.47;;;;;;;10.44;84.98;95741.72;10454259;28;20792;-64
2023/04/15 16:04:58;;;;;;;3.30;2.80;;;;;;;10.03;88.22;95745.53;10450199;28;20839;-65
2023/04/15 16:09:58;;;;;;;4.28;3.10;;;;;;;9.84;89.94;95756.47;10448493;28;20275;-64
2023/04/15 16:14:58;;;;;;;5.78;4.63;;;;;;;9.68;91.82;95771.31;10449549;28;20705;-64
2023/04/15 16:19:59;;;;;;;7.18;5.18;;;;;;;9.73;86.91;95729.75;10448259;28;20600;-63
2023/04/15 16:25:00;;;;;;;2.95;2.67;;;;;;;9.28;85.92;95729.56;10448695;28;20207;-63
2023/04/15 16:30:00;;;;;;;3.00;2.70;;;;;;;9.05;87.33;95753.03;10448483;28;20192;-63
2023/04/15 16:35:02;;;;;;;3.27;2.93;;;;;;;8.90;87.28;95752.94;10448213;28;20216;-63
2023/04/15 16:40:03;;;;;;;4.37;2.97;;;;;;;8.50;88.64;95772.97;10448232;28;20219;-63
2023/04/15 16:45:03;;;;;;;3.77;3.43;;;;;;;8.48;89.72;95784.56;10447887;28;20696;-63
2023/04/15 16:50:04;;;;;;;3.70;3.30;;;;;;;8.65;88.57;95778.34;10447928;28;20184;-64
2023/04/15 16:55:05;;;;;;;3.07;2.77;;;;;;;8.80;87.35;95778.44;10447330;28;20214;-63
2023/04/15 17:00:06;;;;;;;3.40;3.10;;;;;;;8.69;90.08;95815.34;10446298;28;20924;-63
2023/04/15 17:05:07;;;;;;;3.47;3.17;;;;;;;8.69;92.13;95834.44;10447102;28;20990;-64
2023/04/15 17:10:07;;;;;;;3.20;2.77;;;;;;;8.77;89.18;95810.09;10446661;28;20226;-65
2023/04/15 17:15:08;;;;;;;8.57;5.17;;;;;;;8.30;93.27;95842.94;10445756;28;20661;-63
2023/04/15 17:20:10;;;;;;;18.13;13.47;;;;;;;8.30;96.02;95860.38;10448759;28;20243;-64
2023/04/15 17:25:12;;;;;;;3.00;2.80;;;;;;;8.12;100.00;95874.41;10488040;28;20214;-64
2023/04/15 17:30:13;;;;;;;4.23;3.83;;;;;;;8.03;100.00;95881.41;10487891;28;20296;-63
2023/04/15 17:35:13;;;;;;;6.17;4.57;;;;;;;7.61;100.00;95895.34;10487401;28;20329;-63
2023/04/15 17:40:13;;;;;;;7.53;6.00;;;;;;;7.41;100.00;95920.00;10486859;28;20223;-63
2023/04/15 17:45:14;;;;;;;5.90;4.67;;;;;;;7.07;100.00;95920.81;10486962;28;20210;-63
2023/04/15 17:50:14;;;;;;;4.80;4.40;;;;;;;6.71;100.00;95928.75;10487738;28;20191;-61
2023/04/15 17:55:15;;;;;;;4.77;4.37;;;;;;;6.47;100.00;95940.56;10529419;28;20211;-64
2023/04/15 18:00:15;;;;;;;6.60;5.43;;;;;;;6.23;100.00;95954.19;10529242;28;20210;-63
2023/04/15 18:05:17;;;;;;;7.47;6.67;;;;;;;5.95;100.00;95958.59;10528942;28;20206;-64
2023/04/15 18:10:19;;;;;;;6.00;5.40;;;;;;;5.86;100.00;95973.28;10528441;28;20218;-64
2023/04/15 18:15:20;;;;;;;6.90;6.20;;;;;;;5.70;100.00;95982.50;10528579;28;20614;-63
2023/04/15 18:20:20;;;;;;;7.50;6.43;;;;;;;5.68;100.00;95991.41;10528436;28;20337;-63
2023/04/15 18:25:21;;;;;;;7.63;6.57;;;;;;;5.53;100.00;96001.47;10528606;28;20294;-64
2023/04/15 18:30:22;;;;;;;13.13;8.90;;;;;;;5.24;100.00;96004.13;10527734;28;20194;-64
2023/04/15 18:35:23;;;;;;;12.13;8.60;;;;;;;5.33;100.00;96018.91;10528143;28;20679;-65
2023/04/15 18:40:23;;;;;;;10.23;8.10;;;;;;;5.43;100.00;96024.06;10527162;28;20218;-64
2023/04/15 18:45:24;;;;;;;10.13;8.30;;;;;;;5.42;100.00;96023.25;10527625;28;20210;-64
2023/04/15 18:50:24;;;;;;;10.97;9.40;;;;;;;5.28;100.00;96026.28;10526979;28;20182;-64
2023/04/15 18:55:24;;;;;;;9.60;8.23;;;;;;;5.11;100.00;96033.81;10527186;28;20211;-63
2023/04/15 19:00:26;;;;;;;9.33;8.13;;;;;;;4.81;100.00;96032.25;10527200;28;20312;-63
2023/04/15 19:05:26;;;;;;;13.10;9.20;;;;;;;4.72;100.00;96036.47;10526860;28;20703;-64
2023/04/15 19:10:27;;;;;;;9.17;8.10;;;;;;;4.78;100.00;96050.69;10527135;28;20194;-64
2023/04/15 19:15:27;;;;;;;8.63;7.67;;;;;;;4.92;100.00;96060.63;10526507;28;20218;-64
2023/04/15 19:20:28;;;;;;;9.33;8.33;;;;;;;4.78;100.00;96068.84;10525511;28;20317;-64
2023/04/15 19:25:29;;;;;;;8.33;7.50;;;;;;;4.77;100.00;96077.56;10525215;28;20214;-63
2023/04/15 19:30:31;;;;;;;9.53;7.73;;;;;;;4.62;100.00;96083.16;10525919;28;20193;-63
2023/04/15 19:35:31;;;;;;;9.90;8.10;;;;;;;4.57;100.00;96092.31;10526712;28;20714;-63
2023/04/15 19:40:32;;;;;;;8.80;7.73;;;;;;;4.50;100.00;96098.97;10526152;28;20225;-63
2023/04/15 19:45:33;;;;;;;12.23;7.40;;;;;;;4.45;100.00;96100.19;10531904;28;20234;-59
2023/04/15 19:50:33;;;;;;;9.63;8.30;;;;;;;4.44;100.00;96110.69;10531341;28;20197;-63
2023/04/15 19:55:33;;;;;;;8.93;7.97;;;;;;;4.39;100.00;96115.47;10530900;28;20222;-61
2023/04/15 20:00:35;;;;;;;11.13;7.40;;;;;;;4.29;100.00;96124.03;10531435;28;20313;-63
2023/04/15 20:05:35;;;;;;;8.87;7.53;;;;;;;4.29;100.00;96128.41;10530592;28;20238;-62
2023/04/15 20:10:36;;;;;;;13.77;7.80;;;;;;;4.18;100.00;96134.53;10531358;28;20225;-63
2023/04/15 20:15:36;;;;;;;11.23;9.30;;;;;;;4.03;100.00;96133.25;10530741;28;20206;-63
2023/04/15 20:20:38;;;;;;;13.43;8.93;;;;;;;3.89;100.00;96139.56;10530874;28;20230;-63
2023/04/15 20:25:38;;;;;;;9.60;8.60;;;;;;;3.86;100.00;96142.41;10530545;28;20309;-62
2023/04/15 20:30:39;;;;;;;9.90;8.90;;;;;;;3.70;100.00;96148.88;10530498;28;20205;-63
2023/04/15 20:35:39;;;;;;;11.63;9.80;;;;;;;3.77;100.00;96156.97;10537927;28;20212;-63
2023/04/15 20:40:39;;;;;;;12.77;8.83;;;;;;;3.72;100.00;96154.75;10538182;28;20722;-62
2023/04/15 20:45:40;;;;;;;9.17;8.10;;;;;;;3.61;100.00;96157.41;10538056;28;20289;-62
2023/04/15 20:50:40;;;;;;;10.67;8.13;;;;;;;3.56;100.00;96172.53;10523613;28;20213;-62
2023/04/15 20:55:42;;;;;;;9.27;8.23;;;;;;;3.38;100.00;96174.84;10532789;28;20271;-63
2023/04/15 21:00:44;;;;;;;10.03;8.93;;;;;;;3.28;100.00;96179.94;10536205;28;20207;-63
2023/04/15 21:05:44;;;;;;;14.73;8.93;;;;;;;3.38;100.00;96182.59;10536426;28;20627;-62
2023/04/15 21:10:44;;;;;;;11.93;9.77;;;;;;;3.32;100.00;96186.53;10536351;28;20229;-65
2023/04/15 21:15:46;;;;;;;13.13;9.57;;;;;;;3.31;100.00;96197.00;10536778;28;20211;-64
2023/04/15 21:21:03;;;;;;;10.97;9.37;;;;;;;3.20;100.00;96200.44;10536741;28;20237;-65
2023/04/15 21:26:03;;;;;;;11.03;9.67;;;;;;;3.18;100.00;96213.50;10536895;28;20206;-65
2023/04/15 21:31:04;;;;;;;10.07;9.00;;;;;;;3.22;100.00;96216.69;10536446;28;20186;-65
2023/04/15 21:36:04;;;;;;;11.83;9.87;;;;;;;3.11;100.00;96224.47;10536350;28;20672;-64
2023/04/15 21:41:08;;;;;;;15.63;12.13;;;;;;;3.00;100.00;96220.16;10538821;28;20291;-62
2023/04/15 21:46:08;;;;;;;11.97;10.00;;;;;;;2.94;100.00;96220.63;10548864;28;20211;-63
2023/04/15 21:51:09;;;;;;;14.50;9.67;;;;;;;2.82;100.00;96227.63;10552254;28;20565;-62
2023/04/15 21:56:09;;;;;;;13.90;10.80;;;;;;;2.85;100.00;96232.56;10543322;28;20630;-62
2023/04/15 22:01:10;;;;;;;14.20;11.97;;;;;;;2.85;100.00;96233.38;10537622;28;20576;-62
2023/04/15 22:06:12;;;;;;;14.23;11.47;;;;;;;2.93;100.00;96239.72;10534771;28;20593;-63
2023/04/15 22:11:21;;;;;;;13.93;10.97;;;;;;;2.95;100.00;96245.56;10535385;28;20194;-62
2023/04/15 22:16:23;;;;;;;13.03;10.83;;;;;;;2.93;100.00;96250.06;10534579;28;20682;-62
2023/04/15 22:21:23;;;;;;;12.67;9.70;;;;;;;2.98;100.00;96266.03;10534294;28;20273;-63
2023/04/15 22:26:23;;;;;;;13.70;11.03;;;;;;;2.91;100.00;96260.53;10534360;28;20234;-62
2023/04/15 22:31:24;;;;;;;16.23;11.27;;;;;;;3.03;100.00;96264.75;10534239;28;20243;-62
2023/04/15 22:36:25;;;;;;;13.67;10.73;;;;;;;3.07;100.00;96274.84;10533772;28;20344;-63
2023/04/15 22:41:25;;;;;;;15.10;11.20;;;;;;;2.90;100.00;96279.56;10534027;28;20222;-62
2023/04/15 22:46:25;;;;;;;13.27;11.03;;;;;;;2.95;100.00;96274.84;10533237;28;20229;-62
2023/04/15 22:51:26;;;;;;;12.23;10.57;;;;;;;3.03;100.00;96282.00;10533847;28;20190;-61
2023/04/15 22:56:27;;;;;;;15.37;11.10;;;;;;;3.06;100.00;96283.53;10532763;28;20301;-63
2023/04/15 23:01:27;;;;;;;17.30;12.20;;;;;;;3.18;100.00;96293.75;10533412;28;20217;-63
2023/04/15 23:06:27;;;;;;;15.57;12.60;;;;;;;3.17;100.00;96289.53;10532780;28;20225;-63
2023/04/15 23:11:28;;;;;;;19.73;11.90;;;;;;;3.16;100.00;96298.22;10532838;28;20278;-62
2023/04/15 23:16:28;;;;;;;16.23;11.80;;;;;;;3.17;100.00;96297.28;10532682;28;20210;-63
2023/04/15 23:21:30;;;;;;;14.20;11.30;;;;;;;3.02;100.00;96301.09;10532268;28;20237;-63
2023/04/15 23:26:30;;;;;;;15.60;11.60;;;;;;;3.00;100.00;96292.59;10532557;28;20218;-63